createdAt,value
2022-11-28T00:01:31.596Z,6.10
2022-11-28T00:04:00.427Z,5.67
2022-11-28T00:06:28.446Z,5.70
2022-11-28T00:08:58.525Z,5.13
2022-11-28T00:11:25.574Z,5.13
2022-11-28T00:13:52.686Z,5.00
2022-11-28T00:16:23.082Z,5.50
2022-11-28T00:18:51.889Z,5.40
2022-11-28T00:21:20.588Z,5.50
2022-11-28T00:23:48.799Z,5.50
2022-11-28T00:26:19.544Z,4.90
2022-11-28T00:28:46.962Z,5.57
2022-11-28T00:31:15.876Z,5.47
2022-11-28T00:33:43.765Z,5.67
2022-11-28T00:36:12.112Z,5.87
2022-11-28T00:38:40.535Z,5.27
2022-11-28T00:41:10.202Z,5.27
2022-11-28T00:43:37.943Z,5.63
2022-11-28T00:46:05.452Z,5.90
2022-11-28T00:48:33.611Z,5.63
2022-11-28T00:51:07.144Z,5.77
2022-11-28T00:53:34.187Z,5.87
2022-11-28T00:56:05.055Z,5.30
2022-11-28T00:58:32.658Z,5.33
2022-11-28T01:00:59.813Z,5.40
2022-11-28T01:03:27.208Z,5.50
2022-11-28T01:05:54.160Z,4.83
2022-11-28T01:08:21.114Z,5.10
2022-11-28T01:10:48.032Z,5.83
2022-11-28T01:13:16.293Z,4.67
2022-11-28T01:15:43.345Z,5.57
2022-11-28T01:18:10.497Z,4.93
2022-11-28T01:20:37.468Z,5.70
2022-11-28T01:23:04.798Z,5.00
2022-11-28T01:25:32.102Z,4.47
2022-11-28T01:27:59.166Z,5.20
2022-11-28T01:30:28.016Z,5.17
2022-11-28T01:32:55.102Z,4.50
2022-11-28T01:35:22.395Z,4.87
2022-11-28T01:37:49.388Z,5.10
2022-11-28T01:40:16.824Z,4.90
2022-11-28T01:42:43.764Z,5.87
2022-11-28T01:45:19.802Z,4.67
2022-11-28T01:47:50.906Z,4.93
2022-11-28T01:50:20.543Z,5.03
2022-11-28T01:52:53.309Z,5.20
2022-11-28T01:55:26.443Z,4.80
2022-11-28T01:57:55.873Z,4.77
2022-11-28T02:00:23.943Z,5.13
2022-11-28T02:03:00.513Z,4.40
2022-11-28T02:05:27.493Z,4.57
2022-11-28T02:07:54.809Z,4.50
2022-11-28T02:10:27.257Z,4.40
2022-11-28T02:13:21.139Z,5.03
2022-11-28T02:16:17.284Z,4.23
2022-11-28T02:19:00.564Z,4.13
2022-11-28T02:21:50.682Z,4.30
2022-11-28T02:24:54.827Z,3.97
2022-11-28T02:27:40.817Z,4.80
2022-11-28T02:30:21.175Z,3.80
2022-11-28T02:33:05.850Z,4.77
2022-11-28T02:35:41.864Z,4.20
2022-11-28T02:38:20.251Z,5.00
2022-11-28T02:41:04.362Z,4.20
2022-11-28T02:43:43.253Z,4.30
2022-11-28T02:46:16.655Z,5.10
2022-11-28T02:48:53.500Z,4.77
2022-11-28T02:51:31.352Z,4.27
2022-11-28T02:54:01.896Z,4.33
2022-11-28T02:56:29.247Z,4.33
2022-11-28T02:58:56.284Z,4.10
2022-11-28T03:01:29.511Z,4.83
2022-11-28T03:04:13.193Z,4.40
2022-11-28T03:06:52.562Z,4.30
2022-11-28T03:10:07.724Z,4.27
2022-11-28T03:12:51.743Z,4.50
2022-11-28T03:15:27.231Z,4.50
2022-11-28T03:18:07.804Z,4.57
2022-11-28T03:20:47.510Z,4.37
2022-11-28T03:23:19.587Z,4.23
2022-11-28T03:25:58.583Z,4.90
2022-11-28T03:28:32.526Z,4.30
2022-11-28T03:31:04.713Z,5.23
2022-11-28T03:33:40.650Z,4.70
2022-11-28T03:36:16.615Z,4.23
2022-11-28T03:38:49.641Z,4.80
2022-11-28T03:41:22.217Z,4.20
2022-11-28T03:43:57.683Z,4.07
2022-11-28T03:46:35.056Z,4.80
2022-11-28T03:49:07.013Z,4.67
2022-11-28T03:51:42.909Z,4.53
2022-11-28T03:54:15.357Z,4.50
2022-11-28T03:56:54.633Z,4.10
2022-11-28T03:59:28.670Z,3.93
2022-11-28T04:02:09.157Z,4.33
2022-11-28T04:04:48.401Z,4.37
2022-11-28T04:07:28.819Z,4.07
2022-11-28T04:10:06.558Z,4.23
2022-11-28T04:12:50.546Z,4.87
2022-11-28T04:15:29.430Z,4.70
2022-11-28T04:18:02.241Z,4.93
2022-11-28T04:20:39.951Z,4.20
2022-11-28T04:23:14.811Z,5.00
2022-11-28T04:25:50.862Z,4.30
2022-11-28T04:28:25.560Z,4.73
2022-11-28T04:30:56.410Z,4.80
2022-11-28T04:33:29.234Z,4.60
2022-11-28T04:35:58.651Z,4.50
2022-11-28T04:38:30.131Z,4.70
2022-11-28T04:41:06.560Z,4.87
2022-11-28T04:43:39.286Z,4.53
2022-11-28T04:46:14.802Z,4.80
2022-11-28T04:48:42.595Z,4.67
2022-11-28T04:51:20.747Z,4.30
2022-11-28T04:54:00.881Z,4.93
2022-11-28T04:56:36.966Z,4.57
2022-11-28T04:59:07.400Z,5.30
2022-11-28T05:01:36.900Z,5.20
2022-11-28T05:04:04.227Z,4.23
2022-11-28T05:06:34.064Z,4.80
2022-11-28T05:09:04.024Z,5.50
2022-11-28T05:11:32.256Z,5.30
2022-11-28T05:13:59.254Z,5.23
2022-11-28T05:16:26.556Z,4.80
2022-11-28T05:18:53.739Z,5.20
2022-11-28T05:21:21.057Z,4.60
2022-11-28T05:23:48.803Z,4.90
2022-11-28T05:26:19.895Z,4.67
2022-11-28T05:28:50.739Z,4.80
2022-11-28T05:31:19.772Z,5.00
2022-11-28T05:33:47.540Z,4.80
2022-11-28T05:36:16.413Z,5.50
2022-11-28T05:38:44.570Z,4.77
2022-11-28T05:41:20.468Z,5.13
2022-11-28T05:43:47.834Z,4.60
2022-11-28T05:46:15.265Z,4.73
2022-11-28T05:48:42.413Z,4.83
2022-11-28T05:51:09.482Z,4.73
2022-11-28T05:53:36.529Z,4.70
2022-11-28T05:56:07.538Z,4.97
2022-11-28T05:58:36.482Z,5.03
2022-11-28T06:01:11.528Z,5.23
2022-11-28T06:03:38.553Z,5.10
2022-11-28T06:06:11.446Z,4.37
2022-11-28T06:08:38.369Z,5.30
2022-11-28T06:11:05.983Z,5.10
2022-11-28T06:13:33.078Z,4.53
2022-11-28T06:16:01.631Z,4.80
2022-11-28T06:18:28.803Z,5.20
2022-11-28T06:20:55.844Z,5.30
2022-11-28T06:23:23.009Z,5.13
2022-11-28T06:25:50.018Z,5.33
2022-11-28T06:28:16.988Z,5.20
2022-11-28T06:30:44.530Z,6.20
2022-11-28T06:33:13.166Z,5.10
2022-11-28T06:35:40.578Z,4.97
2022-11-28T06:38:11.500Z,5.40
2022-11-28T06:40:41.515Z,5.90
2022-11-28T06:43:08.495Z,5.40
2022-11-28T06:45:35.935Z,5.87
2022-11-28T06:48:03.147Z,5.93
2022-11-28T06:50:33.782Z,5.93
2022-11-28T06:53:00.773Z,5.00
2022-11-28T06:55:29.885Z,5.17
2022-11-28T06:57:56.867Z,5.40
2022-11-28T07:00:24.304Z,5.73
2022-11-28T07:02:51.707Z,6.13
2022-11-28T07:05:19.337Z,6.37
2022-11-28T07:07:54.317Z,6.63
2022-11-28T07:10:22.547Z,6.07
2022-11-28T07:12:54.520Z,5.97
2022-11-28T07:15:21.876Z,5.53
2022-11-28T07:17:49.239Z,6.00
2022-11-28T07:20:16.873Z,6.13
2022-11-28T07:22:44.391Z,5.73
2022-11-28T07:25:14.710Z,5.90
2022-11-28T07:27:42.035Z,6.43
2022-11-28T07:30:10.369Z,6.10
2022-11-28T07:32:40.271Z,7.03
2022-11-28T07:35:08.895Z,6.07
2022-11-28T07:37:36.576Z,7.47
2022-11-28T07:40:05.730Z,6.20
2022-11-28T07:42:34.058Z,6.80
2022-11-28T07:45:01.060Z,5.83
2022-11-28T07:47:28.106Z,6.43
2022-11-28T07:49:55.519Z,5.50
2022-11-28T07:52:22.607Z,5.90
2022-11-28T07:54:50.297Z,6.10
2022-11-28T07:57:17.566Z,6.43
2022-11-28T07:59:45.989Z,6.10
2022-11-28T08:02:13.538Z,6.73
2022-11-28T08:07:27.495Z,6.27
2022-11-28T08:09:54.496Z,7.10
2022-11-28T08:12:21.446Z,6.53
2022-11-28T08:14:49.880Z,5.83
2022-11-28T08:17:16.818Z,6.00
2022-11-28T08:19:43.772Z,6.47
2022-11-28T08:22:10.738Z,5.73
2022-11-28T08:24:37.859Z,6.53
2022-11-28T08:27:04.844Z,6.53
2022-11-28T08:29:31.861Z,6.70
2022-11-28T08:32:00.376Z,6.70
2022-11-28T08:34:27.346Z,6.17
2022-11-28T08:36:54.296Z,7.00
2022-11-28T08:39:25.326Z,6.73
2022-11-28T08:41:52.827Z,5.77
2022-11-28T08:44:19.874Z,9.07
2022-11-28T08:46:46.930Z,6.77
2022-11-28T08:49:15.955Z,6.20
2022-11-28T08:51:42.939Z,7.10
2022-11-28T08:54:10.124Z,6.87
2022-11-28T08:56:37.069Z,7.47
2022-11-28T08:59:04.436Z,5.93
2022-11-28T09:01:31.997Z,6.53
2022-11-28T09:03:59.161Z,7.50
2022-11-28T09:06:27.581Z,6.37
2022-11-28T09:08:54.893Z,6.00
2022-11-28T09:11:23.153Z,6.50
2022-11-28T09:13:51.025Z,6.20
2022-11-28T09:16:19.500Z,6.13
2022-11-28T09:18:46.663Z,5.77
2022-11-28T09:21:15.314Z,5.70
2022-11-28T09:23:45.611Z,6.60
2022-11-28T09:26:38.686Z,6.17
2022-11-28T09:29:06.747Z,5.60
2022-11-28T09:31:33.962Z,7.37
2022-11-28T09:34:03.918Z,7.13
2022-11-28T09:36:33.110Z,7.00
2022-11-28T09:39:02.299Z,7.80
2022-11-28T09:41:54.101Z,6.30
2022-11-28T09:44:26.904Z,7.20
2022-11-28T09:47:04.790Z,6.40
2022-11-28T09:49:41.846Z,6.37
2022-11-28T09:52:26.462Z,6.63
2022-11-28T09:55:05.688Z,6.20
2022-11-28T09:57:39.083Z,6.77
2022-11-28T10:00:16.937Z,6.37
2022-11-28T10:02:56.997Z,6.57
2022-11-28T10:05:35.855Z,6.20
2022-11-28T10:08:21.667Z,6.70
2022-11-28T10:11:01.028Z,6.63
2022-11-28T10:14:06.634Z,6.13
2022-11-28T10:16:46.402Z,6.40
2022-11-28T10:19:52.852Z,5.77
2022-11-28T10:22:16.236Z,5.80
2022-11-28T10:24:50.095Z,6.80
2022-11-28T10:27:32.637Z,6.00
2022-11-28T10:30:04.902Z,6.43
2022-11-28T10:32:38.269Z,6.43
2022-11-28T10:35:13.241Z,6.20
2022-11-28T10:37:40.287Z,7.70
2022-11-28T10:40:24.878Z,6.47
2022-11-28T10:43:01.330Z,6.67
2022-11-28T10:45:43.839Z,6.53
2022-11-28T10:48:40.468Z,6.80
2022-11-28T10:51:28.840Z,6.73
2022-11-28T10:54:15.813Z,6.83
2022-11-28T10:56:56.963Z,6.73
2022-11-28T10:59:45.073Z,7.13
2022-11-28T11:02:26.357Z,6.60
2022-11-28T11:04:54.682Z,6.70
2022-11-28T11:07:29.889Z,6.63
2022-11-28T11:10:12.284Z,7.03
2022-11-28T11:12:41.507Z,6.83
2022-11-28T11:15:29.901Z,7.17
2022-11-28T11:17:57.500Z,6.97
2022-11-28T11:20:36.033Z,7.73
2022-11-28T11:23:15.784Z,6.70
2022-11-28T11:25:53.419Z,7.30
2022-11-28T11:28:39.200Z,7.40
2022-11-28T11:31:20.428Z,7.17
2022-11-28T11:33:51.540Z,7.80
2022-11-28T11:36:29.059Z,6.93
2022-11-28T11:39:22.037Z,7.93
2022-11-28T11:41:51.728Z,7.43
2022-11-28T11:44:34.105Z,7.67
2022-11-28T11:47:05.750Z,8.37
2022-11-28T11:49:36.605Z,8.10
2022-11-28T11:52:14.496Z,7.87
2022-11-28T11:54:58.701Z,7.80
2022-11-28T11:57:33.870Z,7.57
2022-11-28T12:00:07.128Z,7.70
2022-11-28T12:02:44.197Z,7.17
2022-11-28T12:05:17.061Z,8.50
2022-11-28T12:07:56.622Z,7.60
2022-11-28T12:10:29.640Z,8.67
2022-11-28T12:12:57.386Z,7.30
2022-11-28T12:15:47.829Z,7.10
2022-11-28T12:18:35.131Z,7.37
2022-11-28T12:21:13.887Z,7.53
2022-11-28T12:24:01.554Z,7.90
2022-11-28T12:26:41.035Z,7.80
2022-11-28T12:29:39.157Z,7.90
2022-11-28T12:32:29.252Z,7.53
2022-11-28T12:35:21.739Z,7.33
2022-11-28T12:38:10.715Z,7.17
2022-11-28T12:40:56.497Z,7.90
2022-11-28T12:43:44.272Z,6.90
2022-11-28T12:46:27.034Z,7.63
2022-11-28T12:49:17.505Z,7.60
2022-11-28T12:52:05.310Z,8.10
2022-11-28T12:55:17.395Z,7.80
2022-11-28T12:57:53.403Z,7.03
2022-11-28T13:00:24.556Z,8.13
2022-11-28T13:03:08.856Z,8.17
2022-11-28T13:05:59.144Z,8.00
2022-11-28T13:08:52.995Z,8.20
2022-11-28T13:11:44.926Z,8.70
2022-11-28T13:14:29.479Z,7.50
2022-11-28T13:17:07.456Z,7.70
2022-11-28T13:19:50.297Z,8.33
2022-11-28T13:22:24.981Z,8.10
2022-11-28T13:25:06.922Z,8.40
2022-11-28T13:27:44.693Z,7.60
2022-11-28T13:30:22.386Z,8.27
2022-11-28T13:33:01.345Z,8.13
2022-11-28T13:35:29.840Z,8.17
2022-11-28T13:41:03.869Z,8.60
2022-11-28T13:43:46.419Z,7.77
2022-11-28T13:46:14.902Z,8.70
2022-11-28T13:49:20.525Z,8.97
2022-11-28T13:51:48.886Z,9.20
2022-11-28T13:54:44.677Z,8.10
2022-11-28T13:57:31.019Z,8.67
2022-11-28T14:00:05.009Z,8.67
2022-11-28T14:02:44.316Z,7.73
2022-11-28T14:05:31.063Z,7.80
2022-11-28T14:07:58.610Z,8.60
2022-11-28T14:10:56.567Z,8.10
2022-11-28T14:13:58.251Z,8.47
2022-11-28T14:16:50.098Z,8.93
2022-11-28T14:19:38.323Z,7.47
2022-11-28T14:22:28.748Z,7.50
2022-11-28T14:25:04.694Z,7.87
2022-11-28T14:27:36.742Z,7.77
2022-11-28T14:30:07.605Z,8.33
2022-11-28T14:32:40.216Z,7.83
2022-11-28T14:35:36.621Z,7.87
2022-11-28T14:38:24.974Z,8.00
2022-11-28T14:41:04.069Z,9.53
2022-11-28T14:43:32.206Z,8.37
2022-11-28T14:46:30.512Z,8.77
2022-11-28T14:49:30.846Z,8.37
2022-11-28T14:52:37.595Z,8.43
2022-11-28T14:55:17.755Z,8.70
2022-11-28T14:57:56.531Z,8.33
2022-11-28T15:00:27.789Z,8.10
2022-11-28T15:03:19.324Z,8.53
2022-11-28T15:05:50.481Z,9.03
2022-11-28T15:08:36.954Z,8.90
2022-11-28T15:11:37.786Z,10.17
2022-11-28T15:14:19.557Z,8.47
2022-11-28T15:16:50.837Z,8.67
2022-11-28T15:19:27.465Z,8.83
2022-11-28T15:21:55.786Z,9.03
2022-11-28T15:24:30.481Z,9.43
2022-11-28T15:27:22.433Z,8.67
2022-11-28T15:29:55.655Z,8.37
2022-11-28T15:32:23.622Z,8.63
2022-11-28T15:35:00.535Z,9.00
2022-11-28T15:37:31.395Z,8.63
2022-11-28T15:40:01.055Z,9.20
2022-11-28T15:42:32.426Z,8.77
2022-11-28T15:45:08.298Z,9.40
2022-11-28T15:47:35.503Z,7.97
2022-11-28T15:50:16.959Z,8.30
2022-11-28T15:52:56.960Z,7.87
2022-11-28T15:55:29.519Z,8.57
2022-11-28T15:58:12.060Z,8.80
2022-11-28T16:00:45.048Z,8.40
2022-11-28T16:03:17.674Z,9.03
2022-11-28T16:05:48.435Z,9.30
2022-11-28T16:08:30.616Z,9.23
2022-11-28T16:10:59.363Z,9.00
2022-11-28T16:13:29.269Z,9.03
2022-11-28T16:15:58.353Z,9.17
2022-11-28T16:18:27.741Z,9.83
2022-11-28T16:21:00.142Z,8.90
2022-11-28T16:23:32.706Z,9.03
2022-11-28T16:26:02.464Z,9.00
2022-11-28T16:28:33.479Z,8.57
2022-11-28T16:31:00.647Z,8.27
2022-11-28T16:33:38.513Z,9.67
2022-11-28T16:36:17.914Z,8.83
2022-11-28T16:38:48.033Z,10.27
2022-11-28T16:41:17.930Z,9.53
2022-11-28T16:43:52.790Z,9.90
2022-11-28T16:46:23.480Z,8.60
2022-11-28T16:48:56.234Z,8.53
2022-11-28T16:51:36.766Z,9.17
2022-11-28T16:54:31.673Z,9.30
2022-11-28T16:57:11.479Z,9.03
2022-11-28T16:59:38.891Z,9.40
2022-11-28T17:02:15.648Z,9.97
2022-11-28T17:04:43.755Z,9.73
2022-11-28T17:07:15.259Z,9.47
2022-11-28T17:09:43.083Z,9.10
2022-11-28T17:12:20.755Z,9.63
2022-11-28T17:14:47.773Z,9.07
2022-11-28T17:17:18.537Z,10.03
2022-11-28T17:19:46.760Z,10.43
2022-11-28T17:22:19.796Z,9.93
2022-11-28T17:24:48.610Z,9.77
2022-11-28T17:27:16.421Z,10.03
2022-11-28T17:29:44.004Z,11.17
2022-11-28T17:32:13.314Z,10.30
2022-11-28T17:34:42.723Z,9.47
2022-11-28T17:37:10.648Z,9.53
2022-11-28T17:39:39.072Z,9.23
2022-11-28T17:42:06.527Z,9.47
2022-11-28T17:44:37.451Z,10.60
2022-11-28T17:47:05.893Z,10.00
2022-11-28T17:49:33.134Z,10.70
2022-11-28T17:52:00.125Z,10.97
2022-11-28T17:54:28.291Z,10.73
2022-11-28T17:56:57.706Z,10.30
2022-11-28T17:59:26.874Z,9.37
2022-11-28T18:01:54.482Z,10.73
2022-11-28T18:04:21.778Z,10.27
2022-11-28T18:06:48.843Z,9.70
2022-11-28T18:09:16.131Z,10.67
2022-11-28T18:11:44.841Z,10.20
2022-11-28T18:14:13.898Z,10.00
2022-11-28T18:16:43.596Z,9.77
2022-11-28T18:19:11.779Z,11.27
2022-11-28T18:21:39.069Z,9.97
2022-11-28T18:24:07.188Z,11.27
2022-11-28T18:26:35.862Z,11.10
2022-11-28T18:29:03.331Z,11.43
2022-11-28T18:31:31.666Z,11.10
2022-11-28T18:34:02.502Z,10.43
2022-11-28T18:36:32.453Z,10.57
2022-11-28T18:39:03.204Z,10.17
2022-11-28T18:41:30.745Z,10.83
2022-11-28T18:43:59.576Z,10.73
2022-11-28T18:46:28.229Z,11.97
2022-11-28T18:49:00.671Z,10.40
2022-11-28T18:51:30.881Z,10.57
2022-11-28T18:54:02.558Z,11.47
2022-11-28T18:56:31.229Z,11.43
2022-11-28T18:58:58.773Z,11.87
2022-11-28T19:01:30.265Z,12.47
2022-11-28T19:04:01.467Z,10.00
2022-11-28T19:06:29.951Z,10.77
2022-11-28T19:09:00.174Z,11.10
2022-11-28T19:11:31.046Z,12.77
2022-11-28T19:13:59.567Z,12.23
2022-11-28T19:16:30.642Z,11.53
2022-11-28T19:19:01.145Z,11.23
2022-11-28T19:21:32.702Z,11.80
2022-11-28T19:24:01.184Z,11.37
2022-11-28T19:26:31.142Z,11.10
2022-11-28T19:28:59.681Z,11.53
2022-11-28T19:31:29.735Z,10.43
2022-11-28T19:34:02.099Z,11.20
2022-11-28T19:36:31.054Z,11.17
2022-11-28T19:38:58.307Z,11.43
2022-11-28T19:41:25.839Z,11.53
2022-11-28T19:43:52.834Z,11.30
2022-11-28T19:46:20.174Z,11.60
2022-11-28T19:48:47.647Z,12.00
2022-11-28T19:51:15.978Z,12.20
2022-11-28T19:53:47.977Z,12.77
2022-11-28T19:56:18.009Z,12.43
2022-11-28T19:58:48.526Z,12.10
2022-11-28T20:01:18.454Z,11.47
2022-11-28T20:03:47.981Z,10.53
2022-11-28T20:06:19.232Z,12.17
2022-11-28T20:08:47.880Z,11.40
2022-11-28T20:11:18.218Z,11.43
2022-11-28T20:13:46.109Z,10.70
2022-11-28T20:16:17.136Z,11.27
2022-11-28T20:18:45.467Z,10.60
2022-11-28T20:21:17.221Z,10.27
2022-11-28T20:23:47.010Z,10.53
2022-11-28T20:26:16.590Z,10.17
2022-11-28T20:28:45.500Z,9.90
2022-11-28T20:31:20.228Z,11.13
2022-11-28T20:33:48.261Z,10.47
2022-11-28T20:36:19.915Z,10.00
2022-11-28T20:38:48.121Z,11.63
2022-11-28T20:41:18.585Z,10.97
2022-11-28T20:43:46.490Z,10.20
2022-11-28T20:46:16.598Z,11.60
2022-11-28T20:48:44.508Z,11.83
2022-11-28T20:51:14.358Z,11.37
2022-11-28T20:53:42.888Z,11.43
2022-11-28T20:56:14.341Z,10.50
2022-11-28T20:58:42.287Z,10.97
2022-11-28T21:01:14.712Z,10.20
2022-11-28T21:03:41.840Z,10.87
2022-11-28T21:06:09.288Z,11.40
2022-11-28T21:08:36.643Z,11.43
2022-11-28T21:11:07.320Z,11.03
2022-11-28T21:13:35.001Z,12.53
2022-11-28T21:16:07.163Z,11.80
2022-11-28T21:18:35.788Z,11.50
2022-11-28T21:21:09.225Z,10.97
2022-11-28T21:23:36.926Z,11.00
2022-11-28T21:26:07.699Z,11.00
2022-11-28T21:28:36.445Z,10.43
2022-11-28T21:31:06.631Z,10.93
2022-11-28T21:33:33.623Z,11.93
2022-11-28T21:36:01.499Z,11.10
2022-11-28T21:38:28.558Z,11.43
2022-11-28T21:40:55.509Z,11.30
2022-11-28T21:43:23.941Z,10.47
2022-11-28T21:45:51.377Z,10.80
2022-11-28T21:48:18.392Z,11.20
2022-11-28T21:50:46.464Z,11.90
2022-11-28T21:53:16.196Z,11.53
2022-11-28T21:55:44.263Z,11.83
2022-11-28T21:58:11.583Z,11.23
2022-11-28T22:00:53.308Z,12.03
2022-11-28T22:03:22.150Z,12.27
2022-11-28T22:05:49.143Z,11.73
2022-11-28T22:08:16.091Z,10.60
2022-11-28T22:10:43.038Z,11.20
2022-11-28T22:13:09.990Z,11.50
2022-11-28T22:15:42.742Z,11.57
2022-11-28T22:18:10.125Z,10.97
2022-11-28T22:20:43.145Z,10.60
2022-11-28T22:23:11.345Z,11.00
2022-11-28T22:25:38.458Z,11.27
2022-11-28T22:28:05.411Z,11.57
2022-11-28T22:30:32.498Z,11.33
2022-11-28T22:33:00.778Z,12.40
2022-11-28T22:35:27.750Z,10.33
2022-11-28T22:37:55.078Z,10.63
2022-11-28T22:40:22.071Z,10.67
2022-11-28T22:42:54.152Z,11.27
2022-11-28T22:45:21.201Z,11.03
2022-11-28T22:47:48.164Z,11.93
2022-11-28T22:50:16.812Z,10.67
2022-11-28T22:52:44.118Z,11.43
2022-11-28T22:55:11.111Z,10.27
2022-11-28T22:57:38.151Z,10.77
2022-11-28T23:00:08.799Z,10.57
2022-11-28T23:02:36.336Z,11.60
2022-11-28T23:05:04.497Z,11.00
2022-11-28T23:07:32.951Z,10.07
2022-11-28T23:09:59.989Z,11.33
2022-11-28T23:12:26.922Z,10.33
2022-11-28T23:14:53.839Z,11.70
2022-11-28T23:17:20.879Z,11.40
2022-11-28T23:19:47.865Z,10.97
2022-11-28T23:22:14.819Z,11.17
2022-11-28T23:24:43.475Z,11.77
2022-11-28T23:27:10.715Z,11.87
2022-11-28T23:29:37.722Z,11.23
2022-11-28T23:32:05.196Z,11.93
2022-11-28T23:34:32.157Z,11.67
2022-11-28T23:36:59.106Z,10.57
2022-11-28T23:39:26.154Z,12.00
2022-11-28T23:41:55.393Z,9.73
2022-11-28T23:44:22.340Z,11.40
2022-11-28T23:46:49.376Z,11.00
2022-11-28T23:49:17.186Z,11.17
2022-11-28T23:51:44.224Z,9.50
2022-11-28T23:54:11.850Z,10.23
2022-11-28T23:56:41.228Z,11.27
2022-11-28T23:59:11.867Z,10.67
